createdAt,value
2023-01-31T00:01:18.885Z,29.27
2023-01-31T00:03:46.139Z,30.90
2023-01-31T00:06:22.586Z,33.45
2023-01-31T00:08:50.080Z,34.45
2023-01-31T00:11:18.185Z,34.63
2023-01-31T00:13:45.326Z,27.65
2023-01-31T00:16:13.249Z,39.97
2023-01-31T00:18:40.332Z,26.95
2023-01-31T00:21:20.963Z,35.20
2023-01-31T00:23:48.728Z,30.50
2023-01-31T00:26:17.680Z,36.03
2023-01-31T00:28:45.558Z,27.98
2023-01-31T00:31:13.535Z,20.92
2023-01-31T00:33:42.124Z,24.13
2023-01-31T00:36:11.207Z,37.05
2023-01-31T00:38:38.904Z,30.85
2023-01-31T00:41:05.935Z,36.45
2023-01-31T00:43:33.630Z,31.88
2023-01-31T00:46:01.973Z,34.85
2023-01-31T00:48:28.831Z,22.80
2023-01-31T00:50:55.354Z,29.77
2023-01-31T00:53:25.637Z,32.70
2023-01-31T00:55:54.554Z,23.70
2023-01-31T00:58:21.955Z,25.48
2023-01-31T01:00:48.809Z,24.92
2023-01-31T01:03:15.535Z,29.48
2023-01-31T01:05:42.147Z,31.60
2023-01-31T01:08:08.691Z,28.35
2023-01-31T01:10:35.572Z,21.00
2023-01-31T01:13:02.762Z,21.30
2023-01-31T01:15:29.340Z,26.60
2023-01-31T01:17:56.360Z,33.40
2023-01-31T01:20:23.607Z,37.30
2023-01-31T01:22:50.167Z,25.42
2023-01-31T01:25:16.671Z,24.77
2023-01-31T01:27:43.259Z,28.20
2023-01-31T01:30:11.978Z,20.08
2023-01-31T01:32:38.563Z,32.83
2023-01-31T01:35:05.413Z,25.65
2023-01-31T01:37:31.974Z,26.42
2023-01-31T01:39:59.050Z,30.70
2023-01-31T01:42:27.040Z,40.13
2023-01-31T01:44:59.270Z,28.13
2023-01-31T01:47:34.968Z,31.58
2023-01-31T01:50:13.659Z,27.08
2023-01-31T01:52:50.755Z,48.50
2023-01-31T01:55:40.131Z,25.20
2023-01-31T01:58:16.449Z,28.48
2023-01-31T02:00:45.086Z,23.13
2023-01-31T02:03:11.992Z,31.55
2023-01-31T02:05:42.576Z,34.83
2023-01-31T02:08:10.907Z,34.05
2023-01-31T02:11:03.513Z,24.35
2023-01-31T02:13:30.910Z,30.60
2023-01-31T02:15:57.946Z,25.38
2023-01-31T02:18:25.465Z,21.73
2023-01-31T02:21:19.941Z,28.52
2023-01-31T02:23:59.867Z,26.85
2023-01-31T02:26:35.349Z,35.92
2023-01-31T02:29:28.233Z,32.03
2023-01-31T02:32:19.636Z,30.35
2023-01-31T02:35:24.719Z,20.63
2023-01-31T02:38:20.801Z,26.90
2023-01-31T02:40:51.561Z,27.20
2023-01-31T02:44:04.201Z,23.10
2023-01-31T02:46:39.933Z,34.00
2023-01-31T02:49:34.413Z,37.65
2023-01-31T02:52:16.459Z,34.10
2023-01-31T02:55:24.725Z,31.05
2023-01-31T02:57:52.402Z,22.52
2023-01-31T03:00:20.013Z,26.25
2023-01-31T03:02:46.674Z,20.25
2023-01-31T03:05:18.604Z,32.85
2023-01-31T03:07:55.356Z,33.45
2023-01-31T03:10:45.168Z,28.23
2023-01-31T03:13:30.035Z,23.98
2023-01-31T03:16:21.519Z,21.67
2023-01-31T03:18:58.636Z,22.45
2023-01-31T03:21:34.220Z,23.77
2023-01-31T03:24:00.962Z,36.67
2023-01-31T03:26:28.098Z,27.98
2023-01-31T03:28:57.124Z,26.50
2023-01-31T03:31:25.544Z,34.55
2023-01-31T03:33:55.903Z,25.75
2023-01-31T03:36:38.588Z,34.58
2023-01-31T03:39:55.207Z,23.70
2023-01-31T03:42:41.119Z,22.00
2023-01-31T03:45:12.958Z,24.27
2023-01-31T03:47:46.423Z,32.90
2023-01-31T03:50:17.665Z,25.77
2023-01-31T03:52:55.466Z,31.00
2023-01-31T03:55:31.181Z,30.90
2023-01-31T03:57:58.429Z,28.08
2023-01-31T04:00:25.975Z,35.25
2023-01-31T04:03:04.771Z,39.58
2023-01-31T04:05:32.649Z,30.00
2023-01-31T04:08:01.639Z,28.33
2023-01-31T04:10:30.386Z,38.20
2023-01-31T04:12:57.001Z,37.47
2023-01-31T04:15:23.628Z,43.25
2023-01-31T04:17:50.151Z,44.13
2023-01-31T04:20:16.981Z,47.75
2023-01-31T04:22:43.506Z,25.05
2023-01-31T04:25:10.315Z,41.53
2023-01-31T04:27:37.153Z,31.88
2023-01-31T04:30:04.222Z,31.45
2023-01-31T04:32:30.775Z,39.65
2023-01-31T04:34:57.275Z,33.15
2023-01-31T04:37:23.839Z,39.58
2023-01-31T04:39:50.440Z,43.20
2023-01-31T04:42:17.029Z,37.72
2023-01-31T04:44:43.568Z,34.45
2023-01-31T04:47:10.123Z,35.17
2023-01-31T04:49:37.248Z,33.03
2023-01-31T04:52:03.864Z,41.22
2023-01-31T04:54:30.350Z,33.85
2023-01-31T04:56:56.988Z,33.80
2023-01-31T04:59:23.519Z,42.13
2023-01-31T05:01:50.067Z,41.83
2023-01-31T05:04:16.617Z,41.95
2023-01-31T05:06:43.150Z,31.05
2023-01-31T05:09:11.283Z,40.70
2023-01-31T05:11:37.820Z,40.13
2023-01-31T05:14:04.782Z,42.67
2023-01-31T05:16:31.641Z,34.45
2023-01-31T05:18:58.203Z,37.58
2023-01-31T05:21:24.962Z,36.03
2023-01-31T05:23:51.563Z,49.58
2023-01-31T05:26:18.268Z,37.58
2023-01-31T05:28:44.855Z,30.95
2023-01-31T05:31:13.188Z,42.83
2023-01-31T05:33:39.935Z,39.35
2023-01-31T05:36:06.737Z,32.00
2023-01-31T05:38:33.597Z,40.03
2023-01-31T05:41:00.691Z,38.38
2023-01-31T05:43:27.284Z,45.30
2023-01-31T05:45:53.831Z,40.15
2023-01-31T05:48:20.536Z,35.13
2023-01-31T05:50:49.769Z,46.80
2023-01-31T05:53:16.556Z,51.25
2023-01-31T05:55:44.645Z,44.63
2023-01-31T05:58:11.459Z,48.20
2023-01-31T06:00:38.039Z,53.55
2023-01-31T06:03:04.607Z,44.45
2023-01-31T06:05:31.275Z,48.25
2023-01-31T06:07:57.989Z,40.33
2023-01-31T06:10:26.232Z,48.47
2023-01-31T06:12:54.631Z,52.15
2023-01-31T06:15:21.635Z,38.65
2023-01-31T06:17:48.507Z,43.63
2023-01-31T06:20:15.207Z,33.97
2023-01-31T06:22:41.825Z,56.83
2023-01-31T06:25:08.835Z,43.45
2023-01-31T06:27:35.446Z,49.17
2023-01-31T06:30:02.317Z,39.38
2023-01-31T06:32:28.943Z,38.95
2023-01-31T06:34:56.104Z,32.45
2023-01-31T06:37:22.765Z,41.58
2023-01-31T06:39:49.296Z,41.95
2023-01-31T06:42:15.837Z,50.10
2023-01-31T06:44:42.375Z,40.47
2023-01-31T06:47:08.953Z,35.65
2023-01-31T06:49:35.551Z,44.33
2023-01-31T06:52:02.072Z,41.38
2023-01-31T06:54:28.541Z,40.85
2023-01-31T06:56:55.069Z,35.25
2023-01-31T06:59:21.779Z,50.92
2023-01-31T07:01:48.385Z,42.65
2023-01-31T07:04:15.015Z,36.40
2023-01-31T07:06:41.487Z,38.30
2023-01-31T07:09:08.137Z,36.58
2023-01-31T07:11:34.643Z,50.53
2023-01-31T07:14:01.183Z,40.78
2023-01-31T07:16:27.729Z,45.03
2023-01-31T07:18:54.955Z,26.25
2023-01-31T07:21:22.469Z,33.45
2023-01-31T07:23:48.993Z,31.90
2023-01-31T07:26:15.590Z,32.28
2023-01-31T07:28:42.137Z,30.90
2023-01-31T07:31:12.431Z,33.55
2023-01-31T07:33:39.800Z,30.48
2023-01-31T07:36:07.871Z,32.10
2023-01-31T07:38:35.134Z,28.75
2023-01-31T07:41:03.246Z,41.92
2023-01-31T07:43:30.912Z,30.25
2023-01-31T07:45:57.850Z,28.35
2023-01-31T07:48:24.548Z,26.60
2023-01-31T07:51:09.633Z,29.02
2023-01-31T07:53:41.912Z,32.03
2023-01-31T07:56:16.804Z,24.85
2023-01-31T07:58:44.312Z,28.27
2023-01-31T08:01:33.248Z,32.67
2023-01-31T08:04:10.602Z,20.45
2023-01-31T08:06:42.661Z,26.95
2023-01-31T08:09:09.379Z,23.42
2023-01-31T08:11:36.162Z,19.50
2023-01-31T08:14:02.682Z,22.75
2023-01-31T08:16:29.845Z,23.90
2023-01-31T08:18:56.553Z,25.35
2023-01-31T08:21:23.144Z,22.98
2023-01-31T08:23:49.633Z,22.40
2023-01-31T08:26:18.117Z,24.30
2023-01-31T08:28:45.657Z,22.00
2023-01-31T08:31:23.293Z,19.10
2023-01-31T08:33:53.465Z,20.58
2023-01-31T08:36:29.532Z,23.05
2023-01-31T08:38:56.449Z,25.38
2023-01-31T08:41:24.403Z,29.27
2023-01-31T08:43:56.973Z,26.60
2023-01-31T08:46:31.251Z,26.95
2023-01-31T08:48:58.718Z,20.75
2023-01-31T08:51:25.592Z,21.85
2023-01-31T08:53:52.738Z,36.63
2023-01-31T08:56:21.303Z,24.88
2023-01-31T08:58:48.306Z,18.23
2023-01-31T09:01:16.598Z,28.63
2023-01-31T09:03:45.144Z,25.23
2023-01-31T09:06:15.150Z,16.23
2023-01-31T09:08:41.668Z,25.50
2023-01-31T09:11:08.176Z,23.52
2023-01-31T09:13:35.122Z,25.73
2023-01-31T09:16:05.005Z,23.17
2023-01-31T09:18:33.464Z,27.23
2023-01-31T09:21:05.098Z,26.48
2023-01-31T09:23:32.181Z,24.40
2023-01-31T09:25:58.821Z,23.92
2023-01-31T09:28:25.434Z,10.02
2023-01-31T09:30:54.955Z,22.63
2023-01-31T09:33:22.938Z,21.15
2023-01-31T09:35:57.524Z,20.77
2023-01-31T09:38:24.201Z,19.98
2023-01-31T09:40:51.266Z,24.38
2023-01-31T09:43:20.022Z,21.88
2023-01-31T09:45:47.152Z,19.70
2023-01-31T09:48:26.459Z,21.98
2023-01-31T09:50:56.785Z,16.70
2023-01-31T09:53:26.294Z,24.13
2023-01-31T09:56:17.200Z,23.15
2023-01-31T09:59:17.669Z,13.45
2023-01-31T10:02:29.776Z,23.98
2023-01-31T10:05:17.520Z,24.00
2023-01-31T10:08:02.762Z,19.88
2023-01-31T10:10:37.226Z,27.13
2023-01-31T10:13:10.213Z,28.27
2023-01-31T10:15:45.630Z,17.70
2023-01-31T10:18:17.943Z,20.63
2023-01-31T10:20:52.509Z,22.48
2023-01-31T10:23:35.312Z,18.92
2023-01-31T10:26:02.625Z,24.30
2023-01-31T10:29:10.914Z,16.48
2023-01-31T10:31:52.519Z,17.23
2023-01-31T10:34:27.942Z,22.75
2023-01-31T10:36:56.768Z,18.95
2023-01-31T10:39:30.239Z,18.20
2023-01-31T10:42:13.135Z,20.13
2023-01-31T10:44:52.613Z,15.98
2023-01-31T10:47:20.492Z,21.67
2023-01-31T10:49:49.396Z,24.55
2023-01-31T10:52:28.488Z,22.33
2023-01-31T10:55:22.829Z,19.63
2023-01-31T10:57:49.828Z,23.77
2023-01-31T11:00:21.802Z,17.77
2023-01-31T11:02:48.922Z,13.95
2023-01-31T11:05:19.128Z,19.23
2023-01-31T11:07:45.884Z,33.75
2023-01-31T11:10:27.879Z,20.45
2023-01-31T11:12:56.653Z,22.35
2023-01-31T11:15:29.128Z,19.85
2023-01-31T11:18:01.092Z,22.65
2023-01-31T11:20:31.515Z,17.50
2023-01-31T11:22:59.545Z,27.17
2023-01-31T11:25:27.367Z,22.88
2023-01-31T11:28:00.673Z,26.23
2023-01-31T11:30:34.847Z,16.05
2023-01-31T11:33:01.855Z,19.17
2023-01-31T11:35:35.423Z,26.40
2023-01-31T11:38:12.164Z,15.07
2023-01-31T11:40:39.865Z,21.05
2023-01-31T11:43:21.546Z,25.92
2023-01-31T11:46:14.205Z,26.30
2023-01-31T11:48:42.977Z,27.42
2023-01-31T11:51:10.846Z,14.32
2023-01-31T11:53:43.216Z,27.55
2023-01-31T11:56:14.483Z,21.25
2023-01-31T12:01:12.807Z,25.90
2023-01-31T12:06:36.261Z,25.73
2023-01-31T12:09:21.449Z,22.40
2023-01-31T12:11:56.185Z,25.73
2023-01-31T12:14:25.078Z,26.42
2023-01-31T12:16:54.973Z,30.00
2023-01-31T12:19:34.568Z,25.45
2023-01-31T12:22:18.986Z,19.42
2023-01-31T12:25:09.212Z,24.77
2023-01-31T12:28:17.664Z,26.17
2023-01-31T12:30:58.279Z,23.63
2023-01-31T12:33:30.895Z,21.52
2023-01-31T12:36:17.609Z,26.77
2023-01-31T12:38:52.045Z,21.15
2023-01-31T12:41:37.884Z,26.80
2023-01-31T12:44:35.533Z,30.90
2023-01-31T12:47:31.274Z,22.15
2023-01-31T12:50:11.940Z,27.45
2023-01-31T12:52:53.578Z,17.77
2023-01-31T12:55:33.716Z,28.55
2023-01-31T12:58:04.822Z,25.95
2023-01-31T13:03:46.202Z,24.15
2023-01-31T13:06:19.623Z,27.83
2023-01-31T13:09:07.171Z,21.20
2023-01-31T13:11:37.830Z,20.45
2023-01-31T13:14:06.165Z,32.45
2023-01-31T13:16:38.915Z,18.70
2023-01-31T13:19:10.531Z,28.92
2023-01-31T13:21:42.270Z,25.38
2023-01-31T13:24:19.230Z,19.80
2023-01-31T13:26:49.949Z,26.40
2023-01-31T13:29:25.033Z,27.73
2023-01-31T13:32:06.933Z,30.63
2023-01-31T13:34:51.887Z,34.10
2023-01-31T13:37:21.169Z,26.00
2023-01-31T13:39:58.672Z,30.42
2023-01-31T13:42:25.187Z,22.73
2023-01-31T13:44:52.680Z,28.20
2023-01-31T13:47:30.134Z,30.90
2023-01-31T13:49:57.737Z,34.78
2023-01-31T13:52:36.407Z,30.20
2023-01-31T13:55:35.252Z,34.90
2023-01-31T13:58:25.761Z,27.80
2023-01-31T14:01:03.087Z,27.30
2023-01-31T14:03:29.852Z,29.45
2023-01-31T14:06:00.624Z,24.00
2023-01-31T14:08:27.057Z,28.95
2023-01-31T14:10:55.260Z,32.45
2023-01-31T14:13:33.743Z,23.40
2023-01-31T14:16:01.814Z,32.75
2023-01-31T14:18:41.707Z,28.10
2023-01-31T14:21:29.805Z,23.65
2023-01-31T14:23:57.475Z,22.70
2023-01-31T14:26:41.932Z,34.40
2023-01-31T14:29:25.917Z,34.35
2023-01-31T14:31:54.121Z,28.48
2023-01-31T14:34:26.423Z,26.23
2023-01-31T14:37:04.863Z,33.67
2023-01-31T14:39:46.116Z,40.58
2023-01-31T14:44:57.096Z,41.10
2023-01-31T14:47:25.788Z,38.53
2023-01-31T14:49:58.622Z,32.42
2023-01-31T14:52:45.212Z,27.95
2023-01-31T14:55:54.867Z,35.00
2023-01-31T14:58:26.734Z,27.63
2023-01-31T15:00:58.548Z,42.63
2023-01-31T15:03:27.953Z,35.80
2023-01-31T15:05:57.344Z,33.20
2023-01-31T15:08:23.735Z,39.63
2023-01-31T15:11:13.962Z,36.17
2023-01-31T15:13:50.508Z,40.70
2023-01-31T15:16:28.541Z,33.00
2023-01-31T15:18:58.867Z,27.38
2023-01-31T15:21:31.848Z,41.43
2023-01-31T15:23:59.672Z,34.17
2023-01-31T15:26:29.373Z,33.40
2023-01-31T15:28:57.639Z,39.25
2023-01-31T15:31:44.886Z,37.45
2023-01-31T15:34:16.481Z,42.25
2023-01-31T15:36:53.993Z,37.28
2023-01-31T15:39:25.850Z,41.03
2023-01-31T15:41:52.404Z,46.17
2023-01-31T15:44:27.500Z,45.35
2023-01-31T15:46:56.775Z,47.55
2023-01-31T15:49:37.993Z,49.95
2023-01-31T15:52:13.362Z,45.33
2023-01-31T15:54:40.184Z,46.78
2023-01-31T15:57:13.285Z,50.35
2023-01-31T15:59:40.424Z,49.78
2023-01-31T16:02:19.573Z,50.95
2023-01-31T16:04:46.098Z,56.45
2023-01-31T16:07:17.856Z,47.67
2023-01-31T16:09:44.401Z,56.97
2023-01-31T16:12:12.063Z,50.92
2023-01-31T16:14:39.766Z,59.92
2023-01-31T16:17:08.445Z,45.80
2023-01-31T16:19:38.073Z,45.83
2023-01-31T16:22:22.299Z,39.97
2023-01-31T16:25:00.246Z,39.60
2023-01-31T16:27:29.594Z,47.15
2023-01-31T16:29:59.172Z,42.25
2023-01-31T16:32:31.628Z,44.65
2023-01-31T16:35:02.524Z,50.40
2023-01-31T16:37:37.032Z,43.17
2023-01-31T16:40:22.952Z,45.33
2023-01-31T16:42:49.881Z,49.65
2023-01-31T16:45:31.155Z,56.30
2023-01-31T16:48:12.328Z,43.72
2023-01-31T16:50:43.734Z,49.80
2023-01-31T16:53:18.120Z,41.72
2023-01-31T16:55:45.192Z,51.42
2023-01-31T16:58:13.173Z,45.75
2023-01-31T17:00:39.755Z,54.42
2023-01-31T17:03:18.029Z,45.42
2023-01-31T17:05:47.297Z,53.75
2023-01-31T17:08:18.964Z,55.38
2023-01-31T17:13:20.249Z,66.43
2023-01-31T17:15:47.173Z,65.10
2023-01-31T17:18:13.806Z,60.40
2023-01-31T17:20:49.101Z,54.75
2023-01-31T17:23:15.783Z,62.47
2023-01-31T17:25:43.383Z,65.18
2023-01-31T17:28:10.701Z,65.25
2023-01-31T17:30:41.874Z,63.03
2023-01-31T17:33:13.027Z,59.75
2023-01-31T17:35:46.635Z,57.72
2023-01-31T17:38:13.243Z,60.38
2023-01-31T17:40:40.635Z,57.58
2023-01-31T17:43:07.290Z,58.63
2023-01-31T17:45:33.999Z,54.65
2023-01-31T17:48:01.422Z,61.35
2023-01-31T17:50:28.975Z,53.70
2023-01-31T17:52:56.411Z,60.47
2023-01-31T17:55:24.929Z,56.40
2023-01-31T17:57:51.681Z,54.53
2023-01-31T18:00:19.582Z,61.13
2023-01-31T18:02:46.223Z,54.28
2023-01-31T18:05:18.635Z,55.45
2023-01-31T18:07:49.742Z,61.17
2023-01-31T18:10:17.267Z,65.90
2023-01-31T18:12:46.187Z,68.80
2023-01-31T18:15:13.145Z,60.05
2023-01-31T18:17:39.774Z,65.35
2023-01-31T18:20:08.507Z,64.35
2023-01-31T18:22:36.109Z,61.65
2023-01-31T18:25:05.187Z,75.40
2023-01-31T18:27:31.712Z,75.97
2023-01-31T18:29:58.633Z,67.55
2023-01-31T18:32:25.275Z,70.25
2023-01-31T18:34:51.884Z,69.57
2023-01-31T18:37:20.293Z,69.45
2023-01-31T18:39:53.302Z,75.00
2023-01-31T18:42:20.711Z,76.90
2023-01-31T18:44:47.403Z,73.80
2023-01-31T18:47:14.766Z,69.45
2023-01-31T18:49:41.656Z,74.78
2023-01-31T18:52:08.514Z,77.10
2023-01-31T18:54:35.229Z,66.85
2023-01-31T18:57:01.809Z,67.85
2023-01-31T18:59:28.351Z,80.05
2023-01-31T19:01:54.992Z,76.15
2023-01-31T19:04:21.723Z,68.90
2023-01-31T19:06:51.291Z,69.38
2023-01-31T19:09:17.903Z,75.05
2023-01-31T19:11:45.105Z,67.05
2023-01-31T19:14:13.713Z,63.95
2023-01-31T19:16:41.241Z,62.10
2023-01-31T19:19:08.815Z,58.55
2023-01-31T19:21:36.418Z,62.70
2023-01-31T19:24:07.577Z,51.67
2023-01-31T19:29:01.780Z,64.80
2023-01-31T19:31:31.173Z,45.33
2023-01-31T19:34:00.219Z,47.15
2023-01-31T19:36:34.510Z,51.72
2023-01-31T19:39:04.314Z,53.92
2023-01-31T19:41:33.138Z,55.55
2023-01-31T19:44:00.866Z,42.97
2023-01-31T19:46:28.898Z,39.90
2023-01-31T19:48:56.083Z,40.53
2023-01-31T19:51:23.361Z,44.83
2023-01-31T19:53:50.091Z,27.88
2023-01-31T19:56:16.896Z,24.77
2023-01-31T19:58:43.779Z,25.88
2023-01-31T20:01:15.959Z,19.73
2023-01-31T20:03:43.643Z,25.77
2023-01-31T20:06:12.055Z,25.52
2023-01-31T20:08:39.530Z,32.33
2023-01-31T20:11:08.696Z,20.20
2023-01-31T20:13:35.453Z,24.83
2023-01-31T20:16:05.892Z,24.77
2023-01-31T20:18:36.243Z,16.48
2023-01-31T20:21:03.901Z,13.88
2023-01-31T20:23:30.474Z,18.27
2023-01-31T20:25:57.354Z,21.40
2023-01-31T20:28:25.012Z,20.27
2023-01-31T20:30:52.148Z,23.67
2023-01-31T20:33:18.902Z,22.33
2023-01-31T20:35:46.255Z,27.13
2023-01-31T20:38:15.343Z,18.48
2023-01-31T20:40:41.850Z,19.55
2023-01-31T20:43:08.387Z,31.77
2023-01-31T20:45:35.300Z,26.50
2023-01-31T20:48:02.054Z,24.60
2023-01-31T20:50:28.584Z,24.10
2023-01-31T20:52:56.125Z,30.17
2023-01-31T20:55:23.661Z,31.63
2023-01-31T20:57:51.006Z,24.85
2023-01-31T21:00:19.666Z,36.70
2023-01-31T21:02:47.144Z,42.22
2023-01-31T21:05:13.734Z,32.55
2023-01-31T21:07:40.304Z,35.22
2023-01-31T21:10:07.474Z,38.53
2023-01-31T21:12:34.522Z,42.67
2023-01-31T21:15:01.080Z,35.38
2023-01-31T21:17:39.144Z,45.25
2023-01-31T21:20:07.839Z,52.20
2023-01-31T21:22:34.765Z,42.78
2023-01-31T21:25:01.328Z,47.28
2023-01-31T21:27:27.911Z,48.40
2023-01-31T21:29:54.831Z,45.75
2023-01-31T21:32:21.439Z,51.83
2023-01-31T21:34:47.914Z,48.40
2023-01-31T21:37:14.474Z,55.38
2023-01-31T21:39:40.981Z,53.22
2023-01-31T21:42:15.167Z,53.88
2023-01-31T21:44:42.957Z,53.47
2023-01-31T21:47:09.826Z,60.53
2023-01-31T21:49:36.560Z,56.42
2023-01-31T21:52:03.588Z,60.72
2023-01-31T21:54:30.139Z,54.33
2023-01-31T21:56:57.410Z,55.78
2023-01-31T21:59:24.071Z,52.28
2023-01-31T22:01:51.813Z,47.65
2023-01-31T22:04:23.227Z,45.92
2023-01-31T22:06:50.560Z,45.13
2023-01-31T22:09:17.078Z,48.47
2023-01-31T22:11:43.929Z,47.75
2023-01-31T22:14:12.474Z,49.42
2023-01-31T22:16:40.091Z,44.70
2023-01-31T22:19:09.294Z,50.17
2023-01-31T22:21:37.055Z,54.90
2023-01-31T22:24:06.004Z,43.30
2023-01-31T22:26:35.257Z,42.50
2023-01-31T22:29:05.063Z,46.53
2023-01-31T22:31:31.658Z,60.22
2023-01-31T22:33:59.945Z,49.88
2023-01-31T22:36:26.610Z,49.70
2023-01-31T22:38:53.806Z,44.80
2023-01-31T22:41:20.723Z,43.67
2023-01-31T22:43:49.374Z,51.58
2023-01-31T22:46:22.314Z,40.40
2023-01-31T22:48:49.488Z,39.53
2023-01-31T22:51:21.048Z,37.80
2023-01-31T22:53:48.273Z,45.97
2023-01-31T22:56:25.595Z,36.40
2023-01-31T22:58:57.087Z,44.60
2023-01-31T23:01:25.591Z,36.22
2023-01-31T23:03:55.776Z,34.95
2023-01-31T23:06:23.439Z,42.72
2023-01-31T23:08:49.986Z,35.35
2023-01-31T23:11:17.140Z,40.50
2023-01-31T23:13:44.269Z,33.40
2023-01-31T23:16:21.886Z,34.45
2023-01-31T23:18:49.517Z,36.08
2023-01-31T23:21:18.011Z,43.75
2023-01-31T23:23:45.363Z,30.42
2023-01-31T23:26:12.648Z,35.83
2023-01-31T23:28:39.715Z,33.90
2023-01-31T23:31:06.537Z,33.15
2023-01-31T23:33:33.195Z,24.48
2023-01-31T23:35:59.730Z,25.13
2023-01-31T23:38:26.265Z,29.95
2023-01-31T23:40:54.023Z,32.50
2023-01-31T23:43:21.589Z,32.17
2023-01-31T23:45:48.335Z,34.83
2023-01-31T23:48:15.198Z,21.55
2023-01-31T23:50:41.913Z,29.63
2023-01-31T23:53:08.453Z,34.83
2023-01-31T23:55:34.986Z,30.52
2023-01-31T23:58:01.444Z,34.03
